Terminal Aerodrome Forecast
Issued by NWS Jackson, MS

Current Version | Previous Version | Text Only | Print | Product List | Glossary On
Versions: 1 2 3 4 5 6 7 8 9 10 11 12
000
FTUS44 KJAN 020500
TAFMEI
TAF
KMEI 020522Z 0206/0306 00000KT P6SM OVC100
     FM020900 00000KT 5SM BR OVC050
     FM021400 04005KT P6SM SCT050 BKN100=

USA.gov is the U.S. government's official web portal to all federal, state and local government web resources and services.